sensor_id;sensor_type;location;lat;lon;timestamp;pressure;altitude;pressure_sealevel;temperature;humidity
21111;BME280;10713;51.912;4.494;2023-04-19T00:00:03;102745.44;;;8.41;100.00
21111;BME280;10713;51.912;4.494;2023-04-19T00:02:28;102739.34;;;8.39;100.00
21111;BME280;10713;51.912;4.494;2023-04-19T00:04:54;102746.31;;;8.35;100.00
21111;BME280;10713;51.912;4.494;2023-04-19T00:07:19;102743.69;;;8.34;100.00
21111;BME280;10713;51.912;4.494;2023-04-19T00:09:45;102740.16;;;8.30;100.00
21111;BME280;10713;51.912;4.494;2023-04-19T00:12:10;102740.16;;;8.29;100.00
21111;BME280;10713;51.912;4.494;2023-04-19T00:14:35;102746.28;;;8.26;100.00
21111;BME280;10713;51.912;4.494;2023-04-19T00:17:01;102737.53;;;8.24;100.00
21111;BME280;10713;51.912;4.494;2023-04-19T00:19:26;102735.78;;;8.25;100.00
21111;BME280;10713;51.912;4.494;2023-04-19T00:21:51;102748.94;;;8.25;100.00
21111;BME280;10713;51.912;4.494;2023-04-19T00:24:17;102741.03;;;8.26;100.00
21111;BME280;10713;51.912;4.494;2023-04-19T00:26:42;102736.63;;;8.27;100.00
21111;BME280;10713;51.912;4.494;2023-04-19T00:29:08;102742.81;;;8.27;100.00
21111;BME280;10713;51.912;4.494;2023-04-19T00:31:33;102731.41;;;8.25;100.00
21111;BME280;10713;51.912;4.494;2023-04-19T00:33:59;102733.13;;;8.23;100.00
21111;BME280;10713;51.912;4.494;2023-04-19T00:36:24;102733.16;;;8.22;100.00
21111;BME280;10713;51.912;4.494;2023-04-19T00:38:50;102737.53;;;8.21;100.00
21111;BME280;10713;51.912;4.494;2023-04-19T00:41:16;102737.53;;;8.21;100.00
21111;BME280;10713;51.912;4.494;2023-04-19T00:43:41;102727.88;;;8.19;100.00
21111;BME280;10713;51.912;4.494;2023-04-19T00:46:07;102730.50;;;8.17;100.00
21111;BME280;10713;51.912;4.494;2023-04-19T00:48:33;102722.63;;;8.14;100.00
21111;BME280;10713;51.912;4.494;2023-04-19T00:51:00;102731.41;;;8.13;100.00
21111;BME280;10713;51.912;4.494;2023-04-19T00:53:26;102732.25;;;8.15;100.00
21111;BME280;10713;51.912;4.494;2023-04-19T00:55:52;102730.50;;;8.17;100.00
21111;BME280;10713;51.912;4.494;2023-04-19T00:58:18;102727.00;;;8.20;100.00
21111;BME280;10713;51.912;4.494;2023-04-19T01:00:44;102731.38;;;8.24;100.00
21111;BME280;10713;51.912;4.494;2023-04-19T01:03:09;102724.38;;;8.29;100.00
21111;BME280;10713;51.912;4.494;2023-04-19T01:05:35;102732.28;;;8.37;100.00
21111;BME280;10713;51.912;4.494;2023-04-19T01:08:00;102712.13;;;8.45;100.00
21111;BME280;10713;51.912;4.494;2023-04-19T01:10:26;102731.44;;;8.53;100.00
21111;BME280;10713;51.912;4.494;2023-04-19T01:12:52;102722.63;;;8.60;100.00
21111;BME280;10713;51.912;4.494;2023-04-19T01:15:17;102704.22;;;8.68;100.00
21111;BME280;10713;51.912;4.494;2023-04-19T01:17:43;102709.44;;;8.72;100.00
21111;BME280;10713;51.912;4.494;2023-04-19T01:20:08;102708.56;;;8.78;100.00
21111;BME280;10713;51.912;4.494;2023-04-19T01:22:34;102707.69;;;8.82;100.00
21111;BME280;10713;51.912;4.494;2023-04-19T01:25:02;102713.84;;;8.87;100.00
21111;BME280;10713;51.912;4.494;2023-04-19T01:27:28;102722.59;;;8.94;100.00
21111;BME280;10713;51.912;4.494;2023-04-19T01:29:54;102707.63;;;9.00;100.00
21111;BME280;10713;51.912;4.494;2023-04-19T01:32:19;102706.75;;;9.05;100.00
21111;BME280;10713;51.912;4.494;2023-04-19T01:34:46;102691.81;;;9.08;100.00
21111;BME280;10713;51.912;4.494;2023-04-19T01:37:11;102699.69;;;9.17;100.00
21111;BME280;10713;51.912;4.494;2023-04-19T01:39:37;102699.66;;;9.22;100.00
21111;BME280;10713;51.912;4.494;2023-04-19T01:42:02;102691.72;;;9.27;100.00
21111;BME280;10713;51.912;4.494;2023-04-19T01:44:28;102711.06;;;9.30;100.00
21111;BME280;10713;51.912;4.494;2023-04-19T01:46:54;102698.75;;;9.34;100.00
21111;BME280;10713;51.912;4.494;2023-04-19T01:49:20;102705.72;;;9.38;100.00
21111;BME280;10713;51.912;4.494;2023-04-19T01:51:45;102691.66;;;9.43;100.00
21111;BME280;10713;51.912;4.494;2023-04-19T01:54:10;102690.75;;;9.51;100.00
21111;BME280;10713;51.912;4.494;2023-04-19T01:56:36;102690.72;;;9.54;100.00
21111;BME280;10713;51.912;4.494;2023-04-19T01:59:01;102695.97;;;9.60;100.00
21111;BME280;10713;51.912;4.494;2023-04-19T02:01:28;102695.94;;;9.64;100.00
21111;BME280;10713;51.912;4.494;2023-04-19T02:03:53;102701.22;;;9.67;100.00
21111;BME280;10713;51.912;4.494;2023-04-19T02:06:19;102694.16;;;9.66;100.00
21111;BME280;10713;51.912;4.494;2023-04-19T02:08:44;102696.78;;;9.66;100.00
21111;BME280;10713;51.912;4.494;2023-04-19T02:11:11;102697.69;;;9.65;100.00
21111;BME280;10713;51.912;4.494;2023-04-19T02:13:38;102688.03;;;9.63;100.00
21111;BME280;10713;51.912;4.494;2023-04-19T02:16:04;102700.34;;;9.61;100.00
21111;BME280;10713;51.912;4.494;2023-04-19T02:18:30;102694.22;;;9.59;100.00
21111;BME280;10713;51.912;4.494;2023-04-19T02:20:57;102685.44;;;9.52;100.00
21111;BME280;10713;51.912;4.494;2023-04-19T02:23:23;102689.88;;;9.45;100.00
21111;BME280;10713;51.912;4.494;2023-04-19T02:25:49;102684.66;;;9.38;100.00
21111;BME280;10713;51.912;4.494;2023-04-19T02:28:14;102696.09;;;9.34;100.00
21111;BME280;10713;51.912;4.494;2023-04-19T02:30:40;102685.59;;;9.28;100.00
21111;BME280;10713;51.912;4.494;2023-04-19T02:33:05;102689.13;;;9.20;100.00
21111;BME280;10713;51.912;4.494;2023-04-19T02:35:30;102682.97;;;9.15;100.00
21111;BME280;10713;51.912;4.494;2023-04-19T02:37:56;102689.16;;;9.11;100.00
21111;BME280;10713;51.912;4.494;2023-04-19T02:40:21;102694.44;;;9.08;100.00
21111;BME280;10713;51.912;4.494;2023-04-19T02:42:47;102700.59;;;9.07;100.00
21111;BME280;10713;51.912;4.494;2023-04-19T02:45:13;102690.94;;;8.98;100.00
21111;BME280;10713;51.912;4.494;2023-04-19T02:47:38;102698.00;;;8.92;100.00
21111;BME280;10713;51.912;4.494;2023-04-19T02:50:04;102702.41;;;8.87;100.00
21111;BME280;10713;51.912;4.494;2023-04-19T02:52:31;102698.03;;;8.81;100.00
21111;BME280;10713;51.912;4.494;2023-04-19T02:54:57;102703.31;;;8.76;100.00
21111;BME280;10713;51.912;4.494;2023-04-19T02:57:22;102705.94;;;8.76;100.00
21111;BME280;10713;51.912;4.494;2023-04-19T02:59:47;102704.19;;;8.74;100.00
21111;BME280;10713;51.912;4.494;2023-04-19T03:02:13;102709.47;;;8.74;100.00
21111;BME280;10713;51.912;4.494;2023-04-19T03:04:38;102706.81;;;8.69;100.00
21111;BME280;10713;51.912;4.494;2023-04-19T03:07:05;102701.56;;;8.66;100.00
21111;BME280;10713;51.912;4.494;2023-04-19T03:09:30;102713.88;;;8.64;100.00
21111;BME280;10713;51.912;4.494;2023-04-19T03:11:55;102712.13;;;8.62;100.00
21111;BME280;10713;51.912;4.494;2023-04-19T03:14:21;102709.47;;;8.60;100.00
21111;BME280;10713;51.912;4.494;2023-04-19T03:16:46;102702.47;;;8.59;100.00
21111;BME280;10713;51.912;4.494;2023-04-19T03:19:11;102701.59;;;8.59;100.00
21111;BME280;10713;51.912;4.494;2023-04-19T03:21:37;102710.34;;;8.57;100.00
21111;BME280;10713;51.912;4.494;2023-04-19T03:24:02;102710.34;;;8.57;100.00
21111;BME280;10713;51.912;4.494;2023-04-19T03:26:28;102713.00;;;8.56;100.00
21111;BME280;10713;51.912;4.494;2023-04-19T03:28:53;102717.38;;;8.55;100.00
21111;BME280;10713;51.912;4.494;2023-04-19T03:31:18;102696.31;;;8.57;100.00
21111;BME280;10713;51.912;4.494;2023-04-19T03:33:44;102706.88;;;8.59;100.00
21111;BME280;10713;51.912;4.494;2023-04-19T03:36:09;102711.25;;;8.60;100.00
21111;BME280;10713;51.912;4.494;2023-04-19T03:38:35;102706.84;;;8.62;100.00
21111;BME280;10713;51.912;4.494;2023-04-19T03:41:01;102698.94;;;8.63;100.00
21111;BME280;10713;51.912;4.494;2023-04-19T03:43:26;102707.72;;;8.65;100.00
21111;BME280;10713;51.912;4.494;2023-04-19T03:45:51;102700.69;;;8.66;100.00
21111;BME280;10713;51.912;4.494;2023-04-19T03:48:17;102699.81;;;8.65;100.00
21111;BME280;10713;51.912;4.494;2023-04-19T03:50:42;102691.94;;;8.65;100.00
21111;BME280;10713;51.912;4.494;2023-04-19T03:53:08;102699.81;;;8.65;100.00
21111;BME280;10713;51.912;4.494;2023-04-19T03:55:33;102698.06;;;8.66;100.00
21111;BME280;10713;51.912;4.494;2023-04-19T03:57:58;102712.09;;;8.66;100.00
21111;BME280;10713;51.912;4.494;2023-04-19T04:00:24;102697.16;;;8.67;100.00
21111;BME280;10713;51.912;4.494;2023-04-19T04:02:50;102699.81;;;8.67;100.00
21111;BME280;10713;51.912;4.494;2023-04-19T04:05:15;102699.81;;;8.67;100.00
21111;BME280;10713;51.912;4.494;2023-04-19T04:07:41;102702.44;;;8.68;100.00
21111;BME280;10713;51.912;4.494;2023-04-19T04:10:07;102703.31;;;8.69;100.00
21111;BME280;10713;51.912;4.494;2023-04-19T04:12:32;102702.44;;;8.68;100.00
21111;BME280;10713;51.912;4.494;2023-04-19T04:14:58;102698.94;;;8.69;100.00
21111;BME280;10713;51.912;4.494;2023-04-19T04:17:23;102699.78;;;8.70;100.00
21111;BME280;10713;51.912;4.494;2023-04-19T04:19:49;102693.66;;;8.69;100.00
21111;BME280;10713;51.912;4.494;2023-04-19T04:22:15;102707.72;;;8.71;100.00
21111;BME280;10713;51.912;4.494;2023-04-19T04:24:41;102704.19;;;8.72;100.00
21111;BME280;10713;51.912;4.494;2023-04-19T04:27:07;102711.22;;;8.73;100.00
21111;BME280;10713;51.912;4.494;2023-04-19T04:29:36;102705.06;;;8.74;100.00
21111;BME280;10713;51.912;4.494;2023-04-19T04:32:06;102700.69;;;8.73;100.00
21111;BME280;10713;51.912;4.494;2023-04-19T04:34:33;102713.84;;;8.72;100.00
21111;BME280;10713;51.912;4.494;2023-04-19T04:36:59;102716.47;;;8.72;100.00
21111;BME280;10713;51.912;4.494;2023-04-19T04:39:25;102710.34;;;8.73;100.00
21111;BME280;10713;51.912;4.494;2023-04-19T04:41:50;102715.63;;;8.73;100.00
21111;BME280;10713;51.912;4.494;2023-04-19T04:44:17;102722.63;;;8.72;100.00
21111;BME280;10713;51.912;4.494;2023-04-19T04:46:44;102715.59;;;8.71;100.00
21111;BME280;10713;51.912;4.494;2023-04-19T04:49:09;102724.38;;;8.72;100.00
21111;BME280;10713;51.912;4.494;2023-04-19T04:51:35;102715.59;;;8.74;100.00
21111;BME280;10713;51.912;4.494;2023-04-19T04:54:01;102725.25;;;8.75;100.00
21111;BME280;10713;51.912;4.494;2023-04-19T04:56:26;102723.50;;;8.77;100.00
21111;BME280;10713;51.912;4.494;2023-04-19T04:58:52;102727.88;;;8.83;100.00
21111;BME280;10713;51.912;4.494;2023-04-19T05:01:17;102726.09;;;8.94;100.00
21111;BME280;10713;51.912;4.494;2023-04-19T05:03:44;102723.41;;;9.10;100.00
21111;BME280;10713;51.912;4.494;2023-04-19T05:06:09;102731.28;;;9.25;100.00
21111;BME280;10713;51.912;4.494;2023-04-19T05:08:34;102715.34;;;9.46;100.00
21111;BME280;10713;51.912;4.494;2023-04-19T05:11:00;102723.22;;;9.62;100.00
21111;BME280;10713;51.912;4.494;2023-04-19T05:13:25;102708.06;;;9.95;100.00
21111;BME280;10713;51.912;4.494;2023-04-19T05:15:50;102722.78;;;10.23;100.00
21111;BME280;10713;51.912;4.494;2023-04-19T05:18:16;102706.72;;;10.52;100.00
21111;BME280;10713;51.912;4.494;2023-04-19T05:20:41;102696.94;;;10.65;100.00
21111;BME280;10713;51.912;4.494;2023-04-19T05:23:08;102699.69;;;10.54;100.00
21111;BME280;10713;51.912;4.494;2023-04-19T05:25:35;102710.94;;;10.73;100.00
21111;BME280;10713;51.912;4.494;2023-04-19T05:28:00;102708.66;;;11.20;100.00
21111;BME280;10713;51.912;4.494;2023-04-19T05:30:27;102705.59;;;11.54;100.00
21111;BME280;10713;51.912;4.494;2023-04-19T05:32:53;102695.78;;;11.62;100.00
21111;BME280;10713;51.912;4.494;2023-04-19T05:35:18;102692.03;;;11.75;100.00
21111;BME280;10713;51.912;4.494;2023-04-19T05:37:44;102682.91;;;11.99;100.00
21111;BME280;10713;51.912;4.494;2023-04-19T05:40:10;102691.31;;;12.24;100.00
21111;BME280;10713;51.912;4.494;2023-04-19T05:42:35;102700.09;;;12.26;100.00
21111;BME280;10713;51.912;4.494;2023-04-19T05:45:01;102696.44;;;12.35;100.00
21111;BME280;10713;51.912;4.494;2023-04-19T05:47:26;102686.53;;;12.46;100.00
21111;BME280;10713;51.912;4.494;2023-04-19T05:49:52;102691.41;;;12.69;100.00
21111;BME280;10713;51.912;4.494;2023-04-19T05:52:17;102676.84;;;12.90;100.00
21111;BME280;10713;51.912;4.494;2023-04-19T05:54:42;102681.88;;;13.05;100.00
21111;BME280;10713;51.912;4.494;2023-04-19T05:57:08;102687.72;;;13.21;100.00
21111;BME280;10713;51.912;4.494;2023-04-19T05:59:33;102679.63;;;13.31;100.00
21111;BME280;10713;51.912;4.494;2023-04-19T06:01:59;102680.56;;;13.28;100.00
21111;BME280;10713;51.912;4.494;2023-04-19T06:04:25;102676.50;;;13.50;100.00
21111;BME280;10713;51.912;4.494;2023-04-19T06:06:50;102685.06;;;13.63;100.00
21111;BME280;10713;51.912;4.494;2023-04-19T06:09:16;102689.75;;;13.52;100.00
21111;BME280;10713;51.912;4.494;2023-04-19T06:11:43;102683.72;;;13.44;100.00
21111;BME280;10713;51.912;4.494;2023-04-19T06:14:09;102687.00;;;13.57;100.00
21111;BME280;10713;51.912;4.494;2023-04-19T06:16:35;102702.72;;;13.66;100.00
21111;BME280;10713;51.912;4.494;2023-04-19T06:19:00;102676.56;;;13.86;100.00
21111;BME280;10713;51.912;4.494;2023-04-19T06:21:25;102691.25;;;14.01;100.00
21111;BME280;10713;51.912;4.494;2023-04-19T06:23:51;102680.81;;;14.31;100.00
21111;BME280;10713;51.912;4.494;2023-04-19T06:26:16;102684.44;;;14.27;100.00
21111;BME280;10713;51.912;4.494;2023-04-19T06:28:42;102701.56;;;14.49;100.00
21111;BME280;10713;51.912;4.494;2023-04-19T06:31:07;102688.16;;;14.55;100.00
21111;BME280;10713;51.912;4.494;2023-04-19T06:33:32;102696.63;;;14.70;100.00
21111;BME280;10713;51.912;4.494;2023-04-19T06:35:58;102698.41;;;14.69;100.00
21111;BME280;10713;51.912;4.494;2023-04-19T06:38:23;102694.38;;;14.54;100.00
21111;BME280;10713;51.912;4.494;2023-04-19T06:40:48;102688.28;;;14.49;100.00
21111;BME280;10713;51.912;4.494;2023-04-19T06:43:14;102684.63;;;14.55;100.00
21111;BME280;10713;51.912;4.494;2023-04-19T06:45:39;102695.75;;;14.69;100.00
21111;BME280;10713;51.912;4.494;2023-04-19T06:48:04;102684.78;;;15.13;100.00
21111;BME280;10713;51.912;4.494;2023-04-19T06:50:30;102684.63;;;15.48;100.00
21111;BME280;10713;51.912;4.494;2023-04-19T06:52:55;102676.50;;;15.81;100.00
21111;BME280;10713;51.912;4.494;2023-04-19T06:55:21;102682.69;;;15.82;100.00
21111;BME280;10713;51.912;4.494;2023-04-19T06:57:46;102675.53;;;15.84;100.00
21111;BME280;10713;51.912;4.494;2023-04-19T07:00:12;102671.75;;;15.91;100.00
21111;BME280;10713;51.912;4.494;2023-04-19T07:02:38;102677.31;;;15.55;97.81
21111;BME280;10713;51.912;4.494;2023-04-19T07:05:03;102685.41;;;15.50;97.17
21111;BME280;10713;51.912;4.494;2023-04-19T07:07:29;102676.03;;;15.39;95.02
21111;BME280;10713;51.912;4.494;2023-04-19T07:09:54;102673.06;;;15.48;95.05
21111;BME280;10713;51.912;4.494;2023-04-19T07:12:20;102668.41;;;15.84;92.54
21111;BME280;10713;51.912;4.494;2023-04-19T07:14:45;102669.22;;;16.14;86.94
21111;BME280;10713;51.912;4.494;2023-04-19T07:17:10;102645.69;;;16.01;77.04
21111;BME280;10713;51.912;4.494;2023-04-19T07:19:38;102671.56;;;16.24;71.41
21111;BME280;10713;51.912;4.494;2023-04-19T07:22:03;102675.34;;;16.43;68.88
21111;BME280;10713;51.912;4.494;2023-04-19T07:24:30;102661.97;;;16.95;65.80
21111;BME280;10713;51.912;4.494;2023-04-19T07:26:55;102661.66;;;17.49;61.72
21111;BME280;10713;51.912;4.494;2023-04-19T07:29:21;102675.34;;;16.93;62.63
21111;BME280;10713;51.912;4.494;2023-04-19T07:31:47;102678.28;;;16.60;64.53
21111;BME280;10713;51.912;4.494;2023-04-19T07:34:12;102666.31;;;16.72;64.29
21111;BME280;10713;51.912;4.494;2023-04-19T07:36:38;102670.66;;;16.75;64.36
21111;BME280;10713;51.912;4.494;2023-04-19T07:39:03;102659.28;;;16.70;64.25
21111;BME280;10713;51.912;4.494;2023-04-19T07:41:30;102649.97;;;17.06;63.55
21111;BME280;10713;51.912;4.494;2023-04-19T07:43:56;102662.94;;;17.61;61.41
21111;BME280;10713;51.912;4.494;2023-04-19T07:46:21;102655.31;;;17.52;59.54
21111;BME280;10713;51.912;4.494;2023-04-19T07:48:46;102656.91;;;17.34;58.44
21111;BME280;10713;51.912;4.494;2023-04-19T07:51:14;102656.16;;;17.07;57.68
21111;BME280;10713;51.912;4.494;2023-04-19T07:53:48;102655.59;;;17.44;57.56
21111;BME280;10713;51.912;4.494;2023-04-19T07:56:14;102659.59;;;17.56;55.42
21111;BME280;10713;51.912;4.494;2023-04-19T07:58:39;102661.25;;;17.37;54.93
21111;BME280;10713;51.912;4.494;2023-04-19T08:01:05;102642.94;;;17.49;54.80
21111;BME280;10713;51.912;4.494;2023-04-19T08:03:32;102663.91;;;18.04;54.48
21111;BME280;10713;51.912;4.494;2023-04-19T08:06:00;102665.19;;;17.72;52.01
21111;BME280;10713;51.912;4.494;2023-04-19T08:08:26;102659.41;;;17.61;52.77
21111;BME280;10713;51.912;4.494;2023-04-19T08:10:52;102656.44;;;17.90;53.12
21111;BME280;10713;51.912;4.494;2023-04-19T08:13:19;102649.84;;;18.21;52.47
21111;BME280;10713;51.912;4.494;2023-04-19T08:15:44;102651.00;;;18.14;51.67
21111;BME280;10713;51.912;4.494;2023-04-19T08:18:10;102645.75;;;18.33;51.31
21111;BME280;10713;51.912;4.494;2023-04-19T08:20:35;102651.44;;;18.66;50.41
21111;BME280;10713;51.912;4.494;2023-04-19T08:23:01;102653.38;;;18.42;50.11
21111;BME280;10713;51.912;4.494;2023-04-19T08:25:26;102644.47;;;18.41;49.13
21111;BME280;10713;51.912;4.494;2023-04-19T08:27:55;102644.09;;;18.30;48.24
21111;BME280;10713;51.912;4.494;2023-04-19T08:30:21;102644.16;;;18.29;48.05
21111;BME280;10713;51.912;4.494;2023-04-19T08:32:47;102638.19;;;18.22;47.39
21111;BME280;10713;51.912;4.494;2023-04-19T08:35:12;102638.88;;;17.85;45.94
21111;BME280;10713;51.912;4.494;2023-04-19T08:37:38;102640.25;;;17.95;46.42
21111;BME280;10713;51.912;4.494;2023-04-19T08:40:03;102649.78;;;17.80;46.25
21111;BME280;10713;51.912;4.494;2023-04-19T08:42:30;102640.44;;;17.90;46.64
21111;BME280;10713;51.912;4.494;2023-04-19T08:44:56;102634.22;;;17.90;46.21
21111;BME280;10713;51.912;4.494;2023-04-19T08:47:25;102633.66;;;17.82;45.68
21111;BME280;10713;51.912;4.494;2023-04-19T08:49:54;102636.22;;;18.05;45.87
21111;BME280;10713;51.912;4.494;2023-04-19T08:52:22;102650.03;;;17.50;44.86
21111;BME280;10713;51.912;4.494;2023-04-19T08:54:48;102640.78;;;17.14;45.34
21111;BME280;10713;51.912;4.494;2023-04-19T08:57:14;102647.38;;;17.27;45.82
21111;BME280;10713;51.912;4.494;2023-04-19T08:59:40;102640.91;;;17.56;45.93
21111;BME280;10713;51.912;4.494;2023-04-19T09:02:05;102643.44;;;17.59;45.04
21111;BME280;10713;51.912;4.494;2023-04-19T09:04:31;102647.41;;;17.71;44.33
21111;BME280;10713;51.912;4.494;2023-04-19T09:06:56;102644.63;;;17.74;44.45
21111;BME280;10713;51.912;4.494;2023-04-19T09:09:27;102636.66;;;17.28;43.67
21111;BME280;10713;51.912;4.494;2023-04-19T09:11:53;102638.69;;;17.22;44.63
21111;BME280;10713;51.912;4.494;2023-04-19T09:14:20;102636.31;;;17.38;45.40
21111;BME280;10713;51.912;4.494;2023-04-19T09:16:46;102643.56;;;17.34;44.85
21111;BME280;10713;51.912;4.494;2023-04-19T09:19:11;102644.63;;;17.06;44.06
21111;BME280;10713;51.912;4.494;2023-04-19T09:21:38;102621.97;;;17.17;44.74
21111;BME280;10713;51.912;4.494;2023-04-19T09:24:04;102642.78;;;17.08;43.55
21111;BME280;10713;51.912;4.494;2023-04-19T09:26:29;102632.84;;;17.12;43.81
21111;BME280;10713;51.912;4.494;2023-04-19T09:28:59;102633.88;;;17.31;44.13
21111;BME280;10713;51.912;4.494;2023-04-19T09:31:33;102623.19;;;17.53;44.39
21111;BME280;10713;51.912;4.494;2023-04-19T09:34:18;102621.22;;;17.59;43.74
21111;BME280;10713;51.912;4.494;2023-04-19T09:36:43;102648.91;;;17.56;43.59
21111;BME280;10713;51.912;4.494;2023-04-19T09:39:10;102635.13;;;17.23;43.36
21111;BME280;10713;51.912;4.494;2023-04-19T09:42:02;102628.00;;;17.22;43.33
21111;BME280;10713;51.912;4.494;2023-04-19T09:44:27;102589.69;;;17.46;43.57
21111;BME280;10713;51.912;4.494;2023-04-19T09:46:52;102616.06;;;17.54;42.82
21111;BME280;10713;51.912;4.494;2023-04-19T09:49:22;102624.25;;;17.49;42.33
21111;BME280;10713;51.912;4.494;2023-04-19T09:51:55;102633.22;;;17.48;41.46
21111;BME280;10713;51.912;4.494;2023-04-19T09:54:23;102621.91;;;17.64;41.33
21111;BME280;10713;51.912;4.494;2023-04-19T09:56:50;102653.34;;;17.33;40.50
21111;BME280;10713;51.912;4.494;2023-04-19T09:59:15;102622.69;;;16.73;38.25
21111;BME280;10713;51.912;4.494;2023-04-19T10:01:51;102626.56;;;16.64;37.79
21111;BME280;10713;51.912;4.494;2023-04-19T10:04:18;102626.06;;;16.80;37.33
21111;BME280;10713;51.912;4.494;2023-04-19T10:06:48;102622.19;;;16.63;36.58
21111;BME280;10713;51.912;4.494;2023-04-19T10:09:15;102628.75;;;16.53;36.74
21111;BME280;10713;51.912;4.494;2023-04-19T10:11:46;102623.72;;;16.20;35.61
21111;BME280;10713;51.912;4.494;2023-04-19T10:14:13;102622.88;;;16.18;35.63
21111;BME280;10713;51.912;4.494;2023-04-19T10:16:39;102625.41;;;15.96;36.38
21111;BME280;10713;51.912;4.494;2023-04-19T10:19:07;102594.63;;;15.88;36.76
21111;BME280;10713;51.912;4.494;2023-04-19T10:21:33;102602.78;;;16.35;37.47
21111;BME280;10713;51.912;4.494;2023-04-19T10:24:00;102604.50;;;16.61;37.35
21111;BME280;10713;51.912;4.494;2023-04-19T10:26:26;102605.97;;;16.70;37.59
21111;BME280;10713;51.912;4.494;2023-04-19T10:28:53;102597.38;;;16.61;37.40
21111;BME280;10713;51.912;4.494;2023-04-19T10:31:20;102596.53;;;16.59;37.04
21111;BME280;10713;51.912;4.494;2023-04-19T10:33:48;102609.44;;;16.72;36.59
21111;BME280;10713;51.912;4.494;2023-04-19T10:36:14;102595.44;;;16.90;36.90
21111;BME280;10713;51.912;4.494;2023-04-19T10:38:46;102618.81;;;17.07;36.32
21111;BME280;10713;51.912;4.494;2023-04-19T10:41:17;102607.44;;;17.02;37.05
21111;BME280;10713;51.912;4.494;2023-04-19T10:44:10;102592.56;;;16.71;36.64
21111;BME280;10713;51.912;4.494;2023-04-19T10:46:37;102612.66;;;16.56;36.87
21111;BME280;10713;51.912;4.494;2023-04-19T10:49:05;102596.97;;;16.49;36.16
21111;BME280;10713;51.912;4.494;2023-04-19T10:51:36;102598.19;;;16.38;35.43
21111;BME280;10713;51.912;4.494;2023-04-19T10:54:26;102607.97;;;16.13;35.16
21111;BME280;10713;51.912;4.494;2023-04-19T10:57:08;102608.94;;;15.57;34.02
21111;BME280;10713;51.912;4.494;2023-04-19T10:59:38;102599.72;;;15.39;34.49
21111;BME280;10713;51.912;4.494;2023-04-19T11:04:58;102612.72;;;14.91;34.53
21111;BME280;10713;51.912;4.494;2023-04-19T11:07:24;102579.59;;;15.02;35.99
21111;BME280;10713;51.912;4.494;2023-04-19T11:09:50;102598.97;;;15.06;35.25
21111;BME280;10713;51.912;4.494;2023-04-19T11:12:18;102581.34;;;15.02;36.44
21111;BME280;10713;51.912;4.494;2023-04-19T11:14:47;102591.69;;;15.13;36.27
21111;BME280;10713;51.912;4.494;2023-04-19T11:17:24;102672.31;;;15.15;35.75
21111;BME280;10713;51.912;4.494;2023-04-19T11:20:02;102605.66;;;14.90;34.95
21111;BME280;10713;51.912;4.494;2023-04-19T11:22:39;102592.00;;;14.72;35.43
21111;BME280;10713;51.912;4.494;2023-04-19T11:27:31;102598.16;;;14.74;36.50
21111;BME280;10713;51.912;4.494;2023-04-19T11:30:04;102591.97;;;14.74;37.11
21111;BME280;10713;51.912;4.494;2023-04-19T11:32:31;102575.00;;;14.78;36.97
21111;BME280;10713;51.912;4.494;2023-04-19T11:34:56;102575.03;;;14.76;37.93
21111;BME280;10713;51.912;4.494;2023-04-19T11:37:22;102586.31;;;14.84;37.90
21111;BME280;10713;51.912;4.494;2023-04-19T11:39:47;102566.38;;;14.70;37.10
21111;BME280;10713;51.912;4.494;2023-04-19T11:42:17;102581.72;;;14.60;38.05
21111;BME280;10713;51.912;4.494;2023-04-19T11:44:48;102583.72;;;14.50;38.28
21111;BME280;10713;51.912;4.494;2023-04-19T11:47:14;102553.38;;;14.59;38.20
21111;BME280;10713;51.912;4.494;2023-04-19T11:49:40;102574.16;;;14.76;38.19
21111;BME280;10713;51.912;4.494;2023-04-19T11:52:05;102573.16;;;14.49;38.03
21111;BME280;10713;51.912;4.494;2023-04-19T11:54:32;102558.59;;;14.31;38.76
21111;BME280;10713;51.912;4.494;2023-04-19T11:57:02;102552.47;;;14.27;38.86
21111;BME280;10713;51.912;4.494;2023-04-19T11:59:29;102543.41;;;14.03;38.25
21111;BME280;10713;51.912;4.494;2023-04-19T12:01:54;102553.34;;;13.95;38.96
21111;BME280;10713;51.912;4.494;2023-04-19T12:04:20;102553.69;;;13.83;38.65
21111;BME280;10713;51.912;4.494;2023-04-19T12:06:55;102565.09;;;13.85;38.80
21111;BME280;10713;51.912;4.494;2023-04-19T12:09:22;102551.09;;;13.80;39.31
21111;BME280;10713;51.912;4.494;2023-04-19T12:11:47;102537.75;;;13.83;39.60
21111;BME280;10713;51.912;4.494;2023-04-19T12:14:17;102529.13;;;14.07;39.79
21111;BME280;10713;51.912;4.494;2023-04-19T12:16:44;102546.31;;;13.94;39.45
21111;BME280;10713;51.912;4.494;2023-04-19T12:19:15;102528.84;;;13.85;38.92
21111;BME280;10713;51.912;4.494;2023-04-19T12:21:42;102522.16;;;14.03;38.77
21111;BME280;10713;51.912;4.494;2023-04-19T12:24:07;102530.97;;;14.05;38.69
21111;BME280;10713;51.912;4.494;2023-04-19T12:26:33;102523.03;;;14.04;38.46
21111;BME280;10713;51.912;4.494;2023-04-19T12:28:59;102522.56;;;14.20;38.68
21111;BME280;10713;51.912;4.494;2023-04-19T12:31:25;102524.94;;;14.31;39.21
21111;BME280;10713;51.912;4.494;2023-04-19T12:33:51;102521.72;;;14.18;39.53
21111;BME280;10713;51.912;4.494;2023-04-19T12:36:16;102521.72;;;14.18;39.13
21111;BME280;10713;51.912;4.494;2023-04-19T12:38:42;102519.56;;;14.33;39.65
21111;BME280;10713;51.912;4.494;2023-04-19T12:41:07;102521.88;;;14.45;38.41
21111;BME280;10713;51.912;4.494;2023-04-19T12:43:33;102487.09;;;14.54;38.14
21111;BME280;10713;51.912;4.494;2023-04-19T12:45:59;102556.22;;;14.53;37.11
21111;BME280;10713;51.912;4.494;2023-04-19T12:48:25;102514.53;;;14.22;36.12